createdAt,value
2023-07-22T00:02:07.713Z,40.27
2023-07-22T00:04:36.175Z,40.46
2023-07-22T00:07:04.756Z,40.41
2023-07-22T00:09:35.878Z,40.82
2023-07-22T00:12:04.693Z,41.12
2023-07-22T00:14:33.347Z,40.72
2023-07-22T00:17:03.269Z,41.15
2023-07-22T00:19:31.625Z,41.03
2023-07-22T00:21:59.997Z,40.96
2023-07-22T00:24:31.414Z,41.24
2023-07-22T00:26:59.777Z,41.07
2023-07-22T00:29:28.118Z,41.58
2023-07-22T00:31:56.421Z,41.72
2023-07-22T00:34:26.129Z,41.36
2023-07-22T00:36:54.640Z,41.61
2023-07-22T00:39:23.096Z,41.55
2023-07-22T00:41:51.439Z,41.87
2023-07-22T00:44:22.620Z,42.21
2023-07-22T00:46:52.671Z,42.31
2023-07-22T00:49:21.254Z,41.96
2023-07-22T00:51:50.984Z,42.23
2023-07-22T00:54:19.495Z,42.53
2023-07-22T00:56:49.966Z,42.17
2023-07-22T00:59:19.222Z,42.67
2023-07-22T01:01:47.558Z,42.44
2023-07-22T01:04:18.226Z,42.61
2023-07-22T01:06:51.934Z,42.91
2023-07-22T01:09:20.235Z,43.01
2023-07-22T01:11:49.675Z,42.71
2023-07-22T01:14:18.021Z,43.09
2023-07-22T01:16:46.762Z,43.25
2023-07-22T01:19:20.085Z,43.09
2023-07-22T01:21:52.351Z,43.24
2023-07-22T01:24:22.367Z,43.58
2023-07-22T01:26:50.798Z,43.66
2023-07-22T01:29:19.170Z,43.63
2023-07-22T01:31:52.254Z,43.87
2023-07-22T01:34:20.843Z,43.80
2023-07-22T01:36:49.761Z,43.79
2023-07-22T01:39:19.492Z,44.02
2023-07-22T01:41:49.576Z,44.22
2023-07-22T01:44:17.945Z,44.30
2023-07-22T01:46:46.293Z,44.08
2023-07-22T01:49:15.294Z,44.27
2023-07-22T01:51:43.647Z,44.54
2023-07-22T01:54:12.657Z,44.30
2023-07-22T01:56:41.598Z,44.41
2023-07-22T01:59:11.526Z,44.39
2023-07-22T02:01:39.925Z,44.67
2023-07-22T02:04:08.788Z,44.64
2023-07-22T02:06:38.828Z,44.60
2023-07-22T02:09:09.827Z,44.94
2023-07-22T02:11:38.685Z,44.56
2023-07-22T02:14:11.119Z,44.63
2023-07-22T02:16:39.785Z,44.72
2023-07-22T02:19:08.259Z,44.91
2023-07-22T02:21:36.629Z,44.88
2023-07-22T02:24:08.915Z,45.16
2023-07-22T02:26:37.410Z,45.25
2023-07-22T02:29:05.830Z,45.15
2023-07-22T02:31:35.536Z,45.05
2023-07-22T02:34:03.860Z,45.04
2023-07-22T02:36:35.156Z,45.29
2023-07-22T02:39:04.248Z,45.30
2023-07-22T02:41:32.752Z,45.36
2023-07-22T02:44:01.165Z,45.53
2023-07-22T02:46:29.678Z,45.35
2023-07-22T02:49:00.562Z,45.41
2023-07-22T02:51:28.977Z,45.65
2023-07-22T02:53:57.281Z,45.77
2023-07-22T02:56:28.530Z,45.88
2023-07-22T02:58:57.175Z,45.74
2023-07-22T03:01:25.837Z,45.73
2023-07-22T03:03:54.301Z,45.82
2023-07-22T03:06:24.014Z,45.83
2023-07-22T03:08:52.730Z,45.91
2023-07-22T03:11:21.093Z,45.76
2023-07-22T03:13:49.381Z,46.02
2023-07-22T03:16:17.767Z,46.08
2023-07-22T03:18:46.033Z,45.93
2023-07-22T03:21:14.405Z,46.06
2023-07-22T03:23:44.098Z,46.12
2023-07-22T03:26:12.435Z,46.11
2023-07-22T03:28:42.574Z,46.27
2023-07-22T03:31:10.980Z,46.33
2023-07-22T03:33:42.610Z,46.50
2023-07-22T03:36:10.955Z,46.38
2023-07-22T03:38:39.254Z,46.47
2023-07-22T03:41:09.282Z,46.57
2023-07-22T03:43:39.738Z,46.53
2023-07-22T03:46:08.133Z,46.77
2023-07-22T03:48:36.614Z,46.65
2023-07-22T03:51:18.971Z,46.71
2023-07-22T03:53:51.720Z,46.63
2023-07-22T03:56:21.439Z,46.76
2023-07-22T03:58:52.241Z,46.74
2023-07-22T04:01:21.845Z,46.73
2023-07-22T04:03:53.455Z,46.95
2023-07-22T04:06:21.824Z,46.99
2023-07-22T04:08:50.329Z,47.00
2023-07-22T04:11:20.078Z,47.13
2023-07-22T04:13:51.270Z,47.19
2023-07-22T04:16:19.631Z,47.26
2023-07-22T04:18:48.006Z,47.46
2023-07-22T04:21:16.350Z,47.44
2023-07-22T04:23:45.164Z,47.58
2023-07-22T04:26:13.502Z,47.72
2023-07-22T04:28:43.188Z,48.00
2023-07-22T04:31:11.545Z,48.00
2023-07-22T04:33:39.903Z,47.97
2023-07-22T04:36:08.184Z,48.37
2023-07-22T04:38:36.547Z,48.45
2023-07-22T04:41:06.077Z,48.96
2023-07-22T04:43:37.167Z,48.89
2023-07-22T04:46:06.979Z,49.05
2023-07-22T04:48:35.339Z,49.01
2023-07-22T04:51:03.690Z,49.07
2023-07-22T04:53:37.693Z,49.18
2023-07-22T04:56:06.304Z,49.09
2023-07-22T04:58:34.715Z,49.21
2023-07-22T05:01:03.069Z,49.21
2023-07-22T05:03:32.821Z,49.15
2023-07-22T05:06:01.302Z,49.49
2023-07-22T05:08:32.327Z,49.61
2023-07-22T05:11:00.682Z,49.56
2023-07-22T05:13:31.542Z,49.80
2023-07-22T05:15:59.833Z,49.78
2023-07-22T05:18:28.136Z,49.96
2023-07-22T05:20:57.850Z,49.73
2023-07-22T05:23:26.185Z,49.51
2023-07-22T05:25:54.854Z,49.51
2023-07-22T05:28:24.926Z,49.26
2023-07-22T05:30:53.566Z,49.64
2023-07-22T05:33:21.944Z,49.73
2023-07-22T05:35:53.175Z,50.04
2023-07-22T05:38:22.955Z,49.67
2023-07-22T05:40:54.783Z,49.79
2023-07-22T05:43:23.286Z,49.61
2023-07-22T05:45:53.692Z,49.77
2023-07-22T05:48:22.789Z,49.74
2023-07-22T05:50:51.447Z,49.57
2023-07-22T05:53:19.823Z,49.61
2023-07-22T05:55:49.477Z,49.60
2023-07-22T05:58:21.177Z,49.43
2023-07-22T06:00:50.146Z,49.56
2023-07-22T06:03:22.144Z,49.48
2023-07-22T06:05:50.572Z,49.45
2023-07-22T06:08:18.915Z,49.55
2023-07-22T06:10:48.746Z,49.50
2023-07-22T06:13:23.068Z,48.89
2023-07-22T06:15:54.156Z,48.74
2023-07-22T06:18:22.499Z,48.20
2023-07-22T06:20:51.210Z,48.69
2023-07-22T06:23:19.553Z,48.57
2023-07-22T06:25:49.242Z,48.16
2023-07-22T06:28:17.628Z,48.43
2023-07-22T06:30:45.958Z,48.05
2023-07-22T06:33:14.319Z,47.89
2023-07-22T06:35:47.763Z,47.32
2023-07-22T06:38:18.417Z,47.31
2023-07-22T06:40:48.219Z,46.94
2023-07-22T06:43:16.930Z,46.64
2023-07-22T06:45:45.280Z,46.21
2023-07-22T06:48:13.655Z,45.78
2023-07-22T06:50:41.987Z,45.74
2023-07-22T06:53:10.511Z,45.39
2023-07-22T06:55:41.418Z,45.41
2023-07-22T06:58:11.091Z,44.08
2023-07-22T07:00:42.286Z,44.38
2023-07-22T07:03:10.642Z,44.33
2023-07-22T07:05:41.801Z,43.75
2023-07-22T07:08:11.318Z,43.59
2023-07-22T07:10:41.329Z,43.26
2023-07-22T07:13:11.431Z,43.08
2023-07-22T07:15:39.937Z,43.09
2023-07-22T07:18:08.380Z,43.37
2023-07-22T07:20:39.177Z,43.04
2023-07-22T07:23:07.459Z,43.40
2023-07-22T07:25:35.807Z,43.00
2023-07-22T07:28:05.090Z,42.65
2023-07-22T07:30:34.880Z,42.30
2023-07-22T07:33:03.315Z,42.07
2023-07-22T07:35:32.092Z,41.77
2023-07-22T07:38:00.531Z,41.85
2023-07-22T07:40:28.858Z,41.23
2023-07-22T07:42:57.260Z,40.61
2023-07-22T07:45:25.674Z,41.07
2023-07-22T07:47:55.340Z,40.80
2023-07-22T07:50:23.772Z,40.44
2023-07-22T07:52:52.086Z,39.74
2023-07-22T07:55:20.656Z,40.21
2023-07-22T07:57:49.110Z,39.64
2023-07-22T08:00:18.506Z,39.54
2023-07-22T08:02:46.866Z,39.53
2023-07-22T08:05:17.432Z,38.90
2023-07-22T08:07:45.935Z,38.69
2023-07-22T08:10:14.377Z,38.44
2023-07-22T08:12:42.737Z,37.85
2023-07-22T08:15:11.885Z,37.87
2023-07-22T08:17:40.253Z,37.32
2023-07-22T08:20:11.436Z,36.47
2023-07-22T08:22:41.129Z,36.71
2023-07-22T08:25:13.544Z,35.99
2023-07-22T08:27:41.997Z,35.56
2023-07-22T08:30:11.615Z,34.77
2023-07-22T08:32:39.963Z,34.13
2023-07-22T08:35:09.397Z,34.38
2023-07-22T08:37:37.884Z,33.42
2023-07-22T08:40:10.908Z,32.78
2023-07-22T08:42:40.596Z,32.10
2023-07-22T08:45:12.872Z,31.86
2023-07-22T08:47:47.769Z,31.76
2023-07-22T08:50:22.723Z,32.09
2023-07-22T08:52:51.600Z,31.83
2023-07-22T08:55:21.684Z,31.04
2023-07-22T08:57:52.363Z,30.71
2023-07-22T09:00:21.076Z,30.92
2023-07-22T09:02:50.346Z,31.01
2023-07-22T09:05:24.479Z,30.85
2023-07-22T09:07:53.946Z,30.49
2023-07-22T09:10:25.174Z,30.34
2023-07-22T09:12:54.191Z,30.51
2023-07-22T09:15:24.348Z,28.92
2023-07-22T09:17:52.810Z,29.49
2023-07-22T09:20:22.508Z,28.95
2023-07-22T09:23:07.299Z,29.44
2023-07-22T09:25:42.996Z,29.93
2023-07-22T09:28:11.982Z,29.42
2023-07-22T09:30:42.028Z,29.15
2023-07-22T09:33:22.772Z,28.76
2023-07-22T09:35:52.231Z,27.41
2023-07-22T09:38:26.431Z,28.12
2023-07-22T09:40:56.380Z,28.04
2023-07-22T09:43:28.285Z,27.88
2023-07-22T09:45:56.622Z,27.86
2023-07-22T09:48:26.393Z,27.79
2023-07-22T09:51:02.016Z,27.81
2023-07-22T09:53:30.301Z,27.59
2023-07-22T09:56:06.484Z,27.39
2023-07-22T09:58:38.730Z,26.87
2023-07-22T10:01:08.123Z,27.50
2023-07-22T10:03:39.749Z,27.08
2023-07-22T10:06:09.210Z,26.96
2023-07-22T10:08:41.179Z,26.74
2023-07-22T10:11:13.000Z,26.80
2023-07-22T10:13:41.711Z,26.95
2023-07-22T10:16:10.345Z,25.96
2023-07-22T10:18:48.817Z,25.64
2023-07-22T10:21:18.115Z,25.13
2023-07-22T10:23:49.065Z,25.35
2023-07-22T10:26:29.182Z,25.02
2023-07-22T10:29:11.250Z,23.24
2023-07-22T10:31:39.727Z,23.33
2023-07-22T10:34:08.156Z,23.76
2023-07-22T10:36:38.368Z,23.70
2023-07-22T10:39:06.742Z,24.61
2023-07-22T10:41:41.629Z,24.03
2023-07-22T10:44:13.657Z,23.70
2023-07-22T10:46:44.892Z,23.09
2023-07-22T10:49:14.640Z,23.39
2023-07-22T10:51:43.122Z,23.53
2023-07-22T10:54:15.293Z,23.70
2023-07-22T10:56:46.103Z,23.59
2023-07-22T10:59:19.206Z,23.82
2023-07-22T11:01:48.035Z,23.03
2023-07-22T11:04:36.700Z,22.56
2023-07-22T11:07:12.101Z,23.78
2023-07-22T11:09:45.429Z,24.01
2023-07-22T11:12:21.630Z,23.63
2023-07-22T11:14:52.469Z,23.17
2023-07-22T11:17:30.855Z,22.82
2023-07-22T11:20:00.752Z,22.49
2023-07-22T11:22:30.502Z,21.39
2023-07-22T11:24:59.898Z,22.19
2023-07-22T11:27:30.670Z,22.28
2023-07-22T11:30:08.438Z,21.93
2023-07-22T11:32:36.911Z,21.64
2023-07-22T11:35:05.973Z,21.51
2023-07-22T11:37:34.805Z,21.30
2023-07-22T11:40:03.337Z,21.12
2023-07-22T11:42:35.549Z,21.13
2023-07-22T11:45:04.233Z,21.39
2023-07-22T11:47:32.934Z,21.63
2023-07-22T11:50:02.236Z,21.38
2023-07-22T11:52:30.783Z,22.14
2023-07-22T11:55:04.993Z,22.03
2023-07-22T11:57:34.696Z,20.61
2023-07-22T12:00:03.169Z,21.19
2023-07-22T12:02:32.907Z,21.72
2023-07-22T12:05:06.297Z,21.74
2023-07-22T12:07:37.226Z,21.77
2023-07-22T12:10:08.471Z,22.06
2023-07-22T12:12:40.553Z,21.80
2023-07-22T12:15:16.736Z,21.54
2023-07-22T12:17:50.768Z,21.50
2023-07-22T12:20:20.294Z,21.58
2023-07-22T12:22:48.623Z,21.02
2023-07-22T12:25:17.113Z,20.93
2023-07-22T12:27:47.246Z,20.02
2023-07-22T12:30:18.780Z,20.12
2023-07-22T12:32:48.944Z,20.56
2023-07-22T12:35:17.855Z,20.00
2023-07-22T12:37:46.291Z,19.63
2023-07-22T12:40:15.130Z,19.43
2023-07-22T12:42:43.581Z,19.36
2023-07-22T12:45:13.573Z,19.31
2023-07-22T12:47:41.964Z,19.02
2023-07-22T12:50:11.624Z,18.86
2023-07-22T12:52:40.206Z,19.33
2023-07-22T12:55:09.838Z,19.19
2023-07-22T12:57:38.262Z,19.03
2023-07-22T13:00:10.814Z,19.73
2023-07-22T13:02:41.599Z,19.26
2023-07-22T13:05:10.839Z,19.05
2023-07-22T13:07:39.451Z,19.08
2023-07-22T13:10:11.988Z,18.65
2023-07-22T13:12:40.635Z,18.76
2023-07-22T13:15:10.048Z,18.99
2023-07-22T13:17:40.139Z,19.05
2023-07-22T13:20:10.217Z,19.88
2023-07-22T13:22:38.854Z,19.46
2023-07-22T13:25:10.077Z,19.61
2023-07-22T13:27:39.162Z,19.43
2023-07-22T13:30:09.978Z,19.18
2023-07-22T13:32:40.522Z,18.90
2023-07-22T13:35:11.706Z,18.57
2023-07-22T13:37:40.190Z,18.58
2023-07-22T13:40:12.235Z,18.88
2023-07-22T13:42:41.129Z,19.26
2023-07-22T13:45:10.721Z,19.00
2023-07-22T13:47:39.197Z,18.39
2023-07-22T13:50:08.406Z,18.13
2023-07-22T13:52:38.330Z,18.15
2023-07-22T13:55:07.905Z,18.45
2023-07-22T13:57:36.375Z,18.23
2023-07-22T14:00:09.550Z,18.22
2023-07-22T14:02:38.222Z,18.28
2023-07-22T14:05:08.060Z,19.02
2023-07-22T14:07:38.135Z,18.50
2023-07-22T14:10:09.397Z,18.67
2023-07-22T14:12:49.316Z,18.77
2023-07-22T14:15:17.758Z,17.89
2023-07-22T14:17:46.589Z,18.46
2023-07-22T14:20:15.686Z,18.09
2023-07-22T14:22:45.906Z,17.54
2023-07-22T14:25:14.354Z,17.83
2023-07-22T14:27:42.854Z,18.66
2023-07-22T14:30:12.275Z,18.99
2023-07-22T14:32:40.876Z,18.12
2023-07-22T14:35:10.532Z,18.17
2023-07-22T14:37:39.858Z,18.21
2023-07-22T14:40:11.626Z,18.21
2023-07-22T14:42:40.289Z,18.09
2023-07-22T14:45:10.066Z,17.78
2023-07-22T14:47:38.774Z,18.02
2023-07-22T14:50:08.353Z,17.90
2023-07-22T14:52:36.872Z,17.75
2023-07-22T14:55:06.106Z,17.91
2023-07-22T14:57:35.957Z,17.83
2023-07-22T15:00:05.259Z,18.41
2023-07-22T15:02:33.823Z,18.13
2023-07-22T15:05:02.351Z,18.03
2023-07-22T15:07:31.427Z,18.48
2023-07-22T15:10:00.784Z,17.72
2023-07-22T15:12:29.325Z,18.18
2023-07-22T15:14:59.154Z,17.96
2023-07-22T15:17:27.596Z,17.51
2023-07-22T15:19:55.960Z,17.86
2023-07-22T15:22:24.396Z,18.10
2023-07-22T15:24:52.824Z,17.96
2023-07-22T15:27:21.158Z,18.62
2023-07-22T15:29:49.579Z,18.31
2023-07-22T15:32:19.340Z,18.14
2023-07-22T15:34:47.819Z,19.23
2023-07-22T15:37:16.530Z,17.69
2023-07-22T15:39:45.182Z,18.42
2023-07-22T15:42:13.986Z,18.25
2023-07-22T15:44:42.406Z,18.52
2023-07-22T15:47:10.820Z,18.41
2023-07-22T15:49:40.593Z,18.12
2023-07-22T15:52:09.858Z,18.84
2023-07-22T15:54:38.259Z,18.54
2023-07-22T15:57:07.250Z,18.55
2023-07-22T15:59:35.858Z,18.35
2023-07-22T16:02:04.846Z,18.46
2023-07-22T16:04:37.686Z,18.40
2023-07-22T16:07:09.333Z,18.63
2023-07-22T16:09:37.965Z,18.69
2023-07-22T16:12:07.328Z,19.34
2023-07-22T16:14:36.261Z,19.12
2023-07-22T16:17:04.768Z,18.65
2023-07-22T16:19:33.163Z,18.93
2023-07-22T16:22:01.577Z,18.56
2023-07-22T16:24:31.396Z,18.14
2023-07-22T16:26:59.784Z,19.10
2023-07-22T16:29:28.160Z,19.39
2023-07-22T16:31:56.661Z,19.36
2023-07-22T16:34:25.094Z,18.49
2023-07-22T16:36:53.500Z,18.83
2023-07-22T16:39:23.346Z,19.35
2023-07-22T16:41:53.747Z,19.39
2023-07-22T16:44:23.681Z,18.63
2023-07-22T16:46:52.010Z,19.50
2023-07-22T16:49:20.456Z,19.47
2023-07-22T16:51:49.027Z,19.62
2023-07-22T16:54:17.449Z,19.86
2023-07-22T16:56:45.816Z,19.49
2023-07-22T16:59:15.936Z,19.73
2023-07-22T17:01:44.352Z,20.01
2023-07-22T17:04:12.828Z,19.95
2023-07-22T17:06:41.246Z,20.22
2023-07-22T17:09:09.723Z,19.53
2023-07-22T17:11:38.135Z,20.87
2023-07-22T17:14:06.726Z,21.19
2023-07-22T17:16:36.588Z,22.20
2023-07-22T17:19:05.027Z,21.71
2023-07-22T17:21:33.391Z,21.10
2023-07-22T17:24:01.778Z,21.23
2023-07-22T17:26:30.168Z,22.72
2023-07-22T17:29:01.391Z,22.49
2023-07-22T17:31:30.014Z,22.03
2023-07-22T17:34:00.001Z,21.29
2023-07-22T17:36:28.812Z,21.74
2023-07-22T17:38:57.206Z,23.28
2023-07-22T17:41:25.766Z,23.51
2023-07-22T17:43:54.531Z,23.88
2023-07-22T17:46:22.984Z,23.57
2023-07-22T17:48:51.319Z,23.21
2023-07-22T17:51:21.078Z,23.91
2023-07-22T17:53:49.470Z,23.49
2023-07-22T17:56:17.867Z,22.84
2023-07-22T17:58:46.334Z,23.54
2023-07-22T18:01:14.805Z,22.75
2023-07-22T18:03:43.279Z,23.01
2023-07-22T18:06:11.755Z,22.74
2023-07-22T18:08:41.560Z,24.14
2023-07-22T18:11:09.974Z,24.33
2023-07-22T18:13:38.616Z,24.76
2023-07-22T18:16:07.402Z,24.80
2023-07-22T18:18:35.822Z,23.88
2023-07-22T18:21:04.303Z,23.95
2023-07-22T18:23:32.982Z,23.63
2023-07-22T18:26:02.745Z,23.66
2023-07-22T18:28:33.869Z,23.49
2023-07-22T18:31:02.364Z,24.07
2023-07-22T18:33:30.768Z,24.19
2023-07-22T18:35:59.212Z,24.71
2023-07-22T18:38:28.751Z,24.68
2023-07-22T18:40:57.266Z,25.14
2023-07-22T18:43:27.173Z,24.46
2023-07-22T18:45:55.564Z,24.04
2023-07-22T18:48:23.986Z,24.37
2023-07-22T18:50:57.370Z,23.89
2023-07-22T18:53:25.812Z,24.27
2023-07-22T18:55:54.190Z,23.86
2023-07-22T18:58:22.618Z,24.31
2023-07-22T19:00:53.127Z,24.29
2023-07-22T19:03:21.531Z,23.97
2023-07-22T19:05:53.023Z,24.50
2023-07-22T19:08:25.848Z,24.27
2023-07-22T19:10:55.134Z,24.79
2023-07-22T19:13:23.545Z,25.03
2023-07-22T19:15:55.572Z,25.24
2023-07-22T19:18:23.957Z,25.69
2023-07-22T19:21:00.436Z,25.79
2023-07-22T19:23:29.501Z,26.36
2023-07-22T19:25:58.917Z,26.05
2023-07-22T19:28:33.379Z,26.65
2023-07-22T19:31:03.128Z,26.89
2023-07-22T19:33:32.454Z,26.87
2023-07-22T19:36:07.371Z,26.71
2023-07-22T19:38:36.972Z,26.95
2023-07-22T19:41:07.400Z,27.43
2023-07-22T19:43:36.546Z,26.77
2023-07-22T19:46:08.580Z,27.08
2023-07-22T19:48:38.013Z,26.61
2023-07-22T19:51:08.728Z,26.23
2023-07-22T19:53:37.379Z,26.33
2023-07-22T19:56:09.815Z,26.53
2023-07-22T19:58:39.341Z,26.58
2023-07-22T20:01:11.341Z,26.56
2023-07-22T20:03:41.861Z,26.60
2023-07-22T20:06:11.482Z,27.06
2023-07-22T20:08:41.390Z,26.88
2023-07-22T20:11:10.045Z,26.84
2023-07-22T20:13:38.892Z,27.25
2023-07-22T20:16:08.802Z,27.32
2023-07-22T20:18:38.190Z,27.67
2023-07-22T20:21:06.645Z,27.74
2023-07-22T20:23:35.023Z,27.69
2023-07-22T20:26:03.525Z,27.83
2023-07-22T20:28:34.907Z,27.98
2023-07-22T20:31:03.361Z,28.11
2023-07-22T20:33:33.779Z,28.31
2023-07-22T20:36:02.396Z,28.52
2023-07-22T20:38:32.727Z,28.55
2023-07-22T20:41:06.319Z,28.70
2023-07-22T20:43:35.756Z,28.84
2023-07-22T20:46:05.682Z,29.12
2023-07-22T20:48:35.519Z,29.20
2023-07-22T20:51:04.243Z,29.40
2023-07-22T20:53:32.664Z,29.29
2023-07-22T20:56:01.739Z,29.58
2023-07-22T20:58:31.296Z,29.67
2023-07-22T21:01:03.104Z,29.72
2023-07-22T21:03:31.955Z,29.92
2023-07-22T21:06:01.969Z,30.08
2023-07-22T21:08:36.876Z,30.37
2023-07-22T21:11:05.294Z,30.26
2023-07-22T21:13:33.662Z,30.53
2023-07-22T21:16:02.080Z,30.75
2023-07-22T21:18:30.636Z,30.95
2023-07-22T21:20:59.069Z,31.41
2023-07-22T21:23:28.911Z,31.23
2023-07-22T21:25:58.248Z,31.71
2023-07-22T21:28:27.076Z,31.75
2023-07-22T21:30:55.828Z,31.95
2023-07-22T21:33:24.473Z,31.99
2023-07-22T21:35:53.482Z,32.47
2023-07-22T21:38:21.965Z,32.55
2023-07-22T21:40:52.349Z,32.77
2023-07-22T21:43:20.864Z,32.83
2023-07-22T21:45:50.515Z,32.89
2023-07-22T21:48:20.923Z,33.14
2023-07-22T21:50:49.317Z,33.10
2023-07-22T21:53:17.956Z,33.29
2023-07-22T21:55:47.473Z,33.81
2023-07-22T21:58:20.537Z,33.72
2023-07-22T22:00:48.980Z,33.81
2023-07-22T22:03:17.583Z,34.16
2023-07-22T22:05:46.008Z,34.37
2023-07-22T22:08:14.401Z,34.30
2023-07-22T22:10:44.241Z,34.48
2023-07-22T22:13:12.615Z,34.82
2023-07-22T22:15:42.359Z,34.75
2023-07-22T22:18:10.762Z,34.88
2023-07-22T22:20:39.171Z,34.92
2023-07-22T22:23:08.340Z,35.24
2023-07-22T22:25:37.812Z,35.30
2023-07-22T22:28:06.452Z,35.42
2023-07-22T22:30:34.842Z,35.60
2023-07-22T22:33:04.632Z,35.63
2023-07-22T22:35:32.988Z,35.56
2023-07-22T22:38:01.345Z,36.02
2023-07-22T22:40:29.730Z,36.34
2023-07-22T22:42:59.562Z,36.13
2023-07-22T22:45:28.103Z,36.48
2023-07-22T22:47:56.487Z,36.41
2023-07-22T22:50:26.393Z,36.47
2023-07-22T22:52:54.998Z,36.42
2023-07-22T22:55:23.338Z,36.96
2023-07-22T22:57:51.805Z,36.75
2023-07-22T23:00:23.375Z,36.84
2023-07-22T23:02:53.273Z,36.81
2023-07-22T23:05:21.732Z,36.99
2023-07-22T23:07:52.176Z,37.28
2023-07-22T23:10:20.729Z,37.30
2023-07-22T23:12:49.045Z,37.55
2023-07-22T23:15:17.717Z,37.67
2023-07-22T23:17:46.121Z,37.47
2023-07-22T23:20:15.147Z,37.50
2023-07-22T23:22:44.918Z,37.30
2023-07-22T23:25:14.662Z,37.73
2023-07-22T23:27:43.013Z,37.67
2023-07-22T23:30:12.975Z,38.11
2023-07-22T23:32:41.902Z,38.18
2023-07-22T23:35:11.293Z,37.96
2023-07-22T23:37:39.642Z,38.22
2023-07-22T23:40:09.854Z,38.45
2023-07-22T23:42:39.535Z,38.71
2023-07-22T23:45:09.250Z,38.40
2023-07-22T23:47:37.649Z,38.65
2023-07-22T23:50:07.108Z,38.69
2023-07-22T23:52:35.426Z,39.08
2023-07-22T23:55:04.081Z,38.76
2023-07-22T23:57:32.458Z,39.10
